createdAt,value
2019-03-27T00:02:08.751Z,102497.62
2019-03-27T00:04:38.591Z,102493.30
2019-03-27T00:07:08.445Z,102491.83
2019-03-27T00:09:38.241Z,102490.14
2019-03-27T00:12:08.097Z,102485.36
2019-03-27T00:14:37.997Z,102485.79
2019-03-27T00:17:07.926Z,102482.38
2019-03-27T00:19:37.766Z,102478.16
2019-03-27T00:22:07.587Z,102476.27
2019-03-27T00:24:37.398Z,102479.12
2019-03-27T00:27:07.233Z,102468.69
2019-03-27T00:29:37.043Z,102467.03
2019-03-27T00:32:06.915Z,102473.02
2019-03-27T00:34:36.753Z,102463.98
2019-03-27T00:37:06.631Z,102462.61
2019-03-27T00:39:37.772Z,102464.67
2019-03-27T00:42:07.624Z,102459.94
2019-03-27T00:44:37.491Z,102457.98
2019-03-27T00:47:07.336Z,102466.88
2019-03-27T00:49:37.170Z,102463.70
2019-03-27T00:52:07.013Z,102467.48
2019-03-27T00:54:36.815Z,102455.67
2019-03-27T00:57:06.672Z,102462.95
2019-03-27T00:59:36.493Z,102452.52
2019-03-27T01:02:06.371Z,102452.63
2019-03-27T01:04:36.244Z,102451.43
2019-03-27T01:07:06.134Z,102458.55
2019-03-27T01:09:35.963Z,102458.20
2019-03-27T01:12:05.867Z,102460.86
2019-03-27T01:14:35.696Z,102460.41
2019-03-27T01:17:05.510Z,102462.72
2019-03-27T01:19:35.327Z,102454.14
2019-03-27T01:22:05.161Z,102450.38
2019-03-27T01:24:34.980Z,102446.22
2019-03-27T01:27:04.792Z,102438.73
2019-03-27T01:29:34.612Z,102440.52
2019-03-27T01:32:04.467Z,102455.60
2019-03-27T01:34:34.239Z,102453.50
2019-03-27T01:37:05.109Z,102456.67
2019-03-27T01:39:35.432Z,102452.98
2019-03-27T01:42:05.276Z,102454.13
2019-03-27T01:44:35.062Z,102450.98
2019-03-27T01:47:04.890Z,102449.12
2019-03-27T01:49:34.701Z,102454.34
2019-03-27T01:52:07.839Z,102449.37
2019-03-27T01:54:36.099Z,102456.47
2019-03-27T01:57:05.926Z,102459.34
2019-03-27T01:59:35.710Z,102466.23
2019-03-27T02:02:05.513Z,102465.39
2019-03-27T02:04:35.314Z,102453.67
2019-03-27T02:07:05.139Z,102450.33
2019-03-27T02:09:34.938Z,102451.63
2019-03-27T02:12:04.736Z,102452.45
2019-03-27T02:14:34.577Z,102445.48
2019-03-27T02:17:04.372Z,102449.73
2019-03-27T02:19:34.194Z,102448.24
2019-03-27T02:22:03.968Z,102455.60
2019-03-27T02:24:33.827Z,102460.34
2019-03-27T02:27:03.647Z,102458.75
2019-03-27T02:29:33.696Z,102458.20
2019-03-27T02:32:03.520Z,102454.72
2019-03-27T02:34:33.365Z,102452.31
2019-03-27T02:37:03.187Z,102451.95
2019-03-27T02:39:33.027Z,102454.31
2019-03-27T02:42:02.818Z,102456.67
2019-03-27T02:44:32.669Z,102459.34
2019-03-27T02:47:02.696Z,102454.48
2019-03-27T02:49:34.067Z,102448.89
2019-03-27T02:52:03.857Z,102447.41
2019-03-27T02:54:33.699Z,102449.09
2019-03-27T02:57:03.499Z,102448.99
2019-03-27T02:59:33.331Z,102456.67
2019-03-27T03:02:03.393Z,102453.97
2019-03-27T03:04:33.284Z,102458.89
2019-03-27T03:07:03.076Z,102454.73
2019-03-27T03:09:32.882Z,102459.09
2019-03-27T03:12:02.686Z,102455.77
2019-03-27T03:14:32.470Z,102455.58
2019-03-27T03:17:02.449Z,102455.20
2019-03-27T03:19:32.705Z,102454.45
2019-03-27T03:22:02.517Z,102463.55
2019-03-27T03:24:32.340Z,102461.47
2019-03-27T03:27:03.502Z,102459.48
2019-03-27T03:29:33.297Z,102456.13
2019-03-27T03:32:03.299Z,102456.20
2019-03-27T03:34:33.258Z,102452.76
2019-03-27T03:37:03.098Z,102456.41
2019-03-27T03:39:32.935Z,102452.38
2019-03-27T03:42:02.749Z,102455.23
2019-03-27T03:44:32.578Z,102459.78
2019-03-27T03:47:02.389Z,102455.53
2019-03-27T03:49:32.230Z,102456.69
2019-03-27T03:52:02.085Z,102457.06
2019-03-27T03:54:32.020Z,102466.05
2019-03-27T03:57:03.215Z,102468.20
2019-03-27T03:59:33.346Z,102474.19
2019-03-27T04:02:05.413Z,102469.53
2019-03-27T04:04:36.304Z,102476.12
2019-03-27T04:07:06.183Z,102473.69
2019-03-27T04:09:35.984Z,102472.41
2019-03-27T04:12:05.780Z,102473.17
2019-03-27T04:14:35.616Z,102474.19
2019-03-27T04:17:17.049Z,102482.51
2019-03-27T04:19:37.111Z,102485.66
2019-03-27T04:22:06.923Z,102487.62
2019-03-27T04:24:36.725Z,102484.27
2019-03-27T04:27:06.510Z,102488.35
2019-03-27T04:29:36.440Z,102491.29
2019-03-27T04:32:06.256Z,102491.22
2019-03-27T04:34:36.086Z,102495.54
2019-03-27T04:37:06.072Z,102500.11
2019-03-27T04:39:35.881Z,102504.51
2019-03-27T04:42:05.713Z,102508.20
2019-03-27T04:44:35.546Z,102504.83
2019-03-27T04:47:05.335Z,102502.17
2019-03-27T04:49:35.193Z,102502.72
2019-03-27T04:52:05.077Z,102500.31
2019-03-27T04:54:34.951Z,102508.28
2019-03-27T04:57:04.810Z,102502.08
2019-03-27T04:59:34.624Z,102508.80
2019-03-27T05:02:06.624Z,102505.80
2019-03-27T05:04:36.835Z,102506.84
2019-03-27T05:07:06.885Z,102508.37
2019-03-27T05:09:36.680Z,102515.07
2019-03-27T05:12:06.853Z,102514.02
2019-03-27T05:14:36.653Z,102511.38
2019-03-27T05:17:07.031Z,102501.97
2019-03-27T05:19:36.861Z,102511.19
2019-03-27T05:22:06.897Z,102514.77
2019-03-27T05:24:36.687Z,102511.92
2019-03-27T05:27:06.545Z,102509.94
2019-03-27T05:29:37.480Z,102511.92
2019-03-27T05:32:07.337Z,102504.67
2019-03-27T05:34:37.157Z,102512.97
2019-03-27T05:37:06.991Z,102509.57
2019-03-27T05:39:36.834Z,102519.62
2019-03-27T05:42:06.629Z,102519.62
2019-03-27T05:44:36.473Z,102517.55
2019-03-27T05:47:06.303Z,102520.65
2019-03-27T05:49:36.159Z,102517.61
2019-03-27T05:52:06.233Z,102519.45
2019-03-27T05:54:36.065Z,102524.11
2019-03-27T05:57:07.069Z,102527.70
2019-03-27T05:59:36.889Z,102523.17
2019-03-27T06:02:06.730Z,102525.91
2019-03-27T06:04:36.545Z,102528.58
2019-03-27T06:07:06.411Z,102526.86
2019-03-27T06:09:36.211Z,102534.08
2019-03-27T06:12:06.062Z,102537.33
2019-03-27T06:14:35.895Z,102540.64
2019-03-27T06:17:05.820Z,102539.22
2019-03-27T06:19:35.639Z,102536.23
2019-03-27T06:22:05.500Z,102534.89
2019-03-27T06:24:35.312Z,102527.39
2019-03-27T06:27:05.645Z,102531.20
2019-03-27T06:29:35.423Z,102532.41
2019-03-27T06:32:05.255Z,102539.90
2019-03-27T06:34:35.153Z,102545.09
2019-03-27T06:37:05.018Z,102541.58
2019-03-27T06:39:34.798Z,102538.04
2019-03-27T06:42:04.643Z,102546.57
2019-03-27T06:44:35.270Z,102553.54
2019-03-27T06:47:06.010Z,102547.89
2019-03-27T06:49:36.587Z,102555.54
2019-03-27T06:52:07.478Z,102560.72
2019-03-27T06:54:38.016Z,102560.59
2019-03-27T06:57:09.380Z,102559.94
2019-03-27T06:59:39.978Z,102550.64
2019-03-27T07:02:10.609Z,102552.22
2019-03-27T07:04:41.210Z,102558.59
2019-03-27T07:07:11.783Z,102551.31
2019-03-27T07:09:42.759Z,102547.77
2019-03-27T07:12:20.887Z,102554.09
2019-03-27T07:14:45.689Z,102558.67
2019-03-27T07:17:16.571Z,102561.56
2019-03-27T07:19:47.521Z,102563.70
2019-03-27T07:22:18.336Z,102568.16
2019-03-27T07:24:50.648Z,102568.16
2019-03-27T07:27:21.190Z,102564.47
2019-03-27T07:29:51.841Z,102572.80
2019-03-27T07:32:22.403Z,102568.19
2019-03-27T07:34:52.978Z,102570.08
2019-03-27T07:37:23.569Z,102577.09
2019-03-27T07:39:54.200Z,102576.07
2019-03-27T07:42:24.760Z,102588.29
2019-03-27T07:44:55.410Z,102580.77
2019-03-27T07:47:25.992Z,102586.63
2019-03-27T07:49:56.578Z,102584.12
2019-03-27T07:52:27.166Z,102586.16
2019-03-27T07:54:57.741Z,102584.82
2019-03-27T07:57:28.334Z,102581.59
2019-03-27T07:59:58.918Z,102589.27
2019-03-27T08:02:29.484Z,102592.80
2019-03-27T08:05:00.159Z,102584.30
2019-03-27T08:07:30.914Z,102589.36
2019-03-27T08:10:02.683Z,102585.98
2019-03-27T08:12:33.292Z,102587.94
2019-03-27T08:15:04.076Z,102584.95
2019-03-27T08:17:34.821Z,102586.63
2019-03-27T08:20:06.134Z,102579.27
2019-03-27T08:22:36.714Z,102579.56
2019-03-27T08:25:07.811Z,102579.68
2019-03-27T08:27:38.396Z,102581.12
2019-03-27T08:30:11.224Z,102578.59
2019-03-27T08:32:41.916Z,102588.70
2019-03-27T08:35:12.922Z,102586.11
2019-03-27T08:37:43.521Z,102587.91
2019-03-27T08:40:14.440Z,102588.53
2019-03-27T08:42:45.000Z,102592.63
2019-03-27T08:45:15.688Z,102589.75
2019-03-27T08:47:46.325Z,102591.73
2019-03-27T08:50:17.043Z,102591.61
2019-03-27T08:52:47.656Z,102593.81
2019-03-27T08:55:18.407Z,102592.45
2019-03-27T08:57:49.099Z,102599.61
2019-03-27T09:00:23.765Z,102597.18
2019-03-27T09:02:54.336Z,102604.38
2019-03-27T09:05:24.953Z,102601.70
2019-03-27T09:07:55.565Z,102597.36
2019-03-27T09:10:26.152Z,102590.69
2019-03-27T09:12:56.951Z,102586.41
2019-03-27T09:15:27.593Z,102592.58
2019-03-27T09:17:58.161Z,102587.35
2019-03-27T09:20:28.786Z,102590.17
2019-03-27T09:22:59.339Z,102602.23
2019-03-27T09:25:30.837Z,102596.60
2019-03-27T09:28:01.451Z,102602.25
2019-03-27T09:30:32.065Z,102598.70
2019-03-27T09:33:02.650Z,102599.70
2019-03-27T09:35:33.229Z,102592.47
2019-03-27T09:38:03.842Z,102604.98
2019-03-27T09:40:34.803Z,102606.81
2019-03-27T09:43:05.355Z,102606.59
2019-03-27T09:45:36.033Z,102601.86
2019-03-27T09:48:06.601Z,102599.74
2019-03-27T09:50:37.326Z,102592.59
2019-03-27T09:53:07.923Z,102605.20
2019-03-27T09:55:38.627Z,102596.97
2019-03-27T09:58:09.208Z,102602.11
2019-03-27T10:01:10.795Z,102606.14
2019-03-27T10:03:41.385Z,102607.57
2019-03-27T10:06:12.103Z,102613.13
2019-03-27T10:08:42.659Z,102606.67
2019-03-27T10:11:13.280Z,102600.44
2019-03-27T10:13:43.823Z,102601.09
2019-03-27T10:16:14.457Z,102604.86
2019-03-27T10:18:47.414Z,102599.63
2019-03-27T10:21:17.427Z,102605.01
2019-03-27T10:23:48.040Z,102602.00
2019-03-27T10:26:18.638Z,102599.17
2019-03-27T10:28:49.270Z,102592.83
2019-03-27T10:31:23.232Z,102592.02
2019-03-27T10:33:53.787Z,102584.33
2019-03-27T10:36:24.509Z,102584.33
2019-03-27T10:38:55.121Z,102585.67
2019-03-27T10:41:25.716Z,102587.98
2019-03-27T10:43:56.469Z,102588.80
2019-03-27T10:46:27.117Z,102589.77
2019-03-27T10:48:57.760Z,102588.76
2019-03-27T10:51:28.394Z,102591.20
2019-03-27T10:53:59.041Z,102586.29
2019-03-27T10:56:29.671Z,102594.42
2019-03-27T10:59:00.365Z,102587.78
2019-03-27T11:01:30.997Z,102589.72
2019-03-27T11:04:01.591Z,102587.09
2019-03-27T11:06:32.296Z,102586.61
2019-03-27T11:09:04.401Z,102582.19
2019-03-27T11:11:37.754Z,102587.22
2019-03-27T11:14:08.347Z,102586.34
2019-03-27T11:16:38.975Z,102585.49
2019-03-27T11:19:09.537Z,102597.97
2019-03-27T11:21:40.165Z,102594.91
2019-03-27T11:24:10.783Z,102591.00
2019-03-27T11:26:41.397Z,102590.67
2019-03-27T11:29:12.012Z,102594.55
2019-03-27T11:31:42.686Z,102595.25
2019-03-27T11:34:13.264Z,102593.13
2019-03-27T11:36:43.882Z,102588.97
2019-03-27T11:39:14.472Z,102589.78
2019-03-27T11:41:45.124Z,102593.98
2019-03-27T11:44:15.720Z,102577.25
2019-03-27T11:46:46.420Z,102581.89
2019-03-27T11:49:16.952Z,102573.37
2019-03-27T11:51:47.580Z,102571.21
2019-03-27T11:54:18.221Z,102579.56
2019-03-27T11:56:49.004Z,102570.37
2019-03-27T11:59:19.605Z,102569.98
2019-03-27T12:01:50.212Z,102580.67
2019-03-27T12:04:20.863Z,102580.33
2019-03-27T12:06:51.493Z,102582.14
2019-03-27T12:09:22.162Z,102579.09
2019-03-27T12:11:52.736Z,102588.52
2019-03-27T12:14:23.342Z,102581.51
2019-03-27T12:16:53.961Z,102581.51
2019-03-27T12:19:24.622Z,102582.09
2019-03-27T12:21:55.288Z,102582.09
2019-03-27T12:24:28.502Z,102576.41
2019-03-27T12:26:58.248Z,102576.41
2019-03-27T12:29:29.024Z,102567.71
2019-03-27T12:31:59.636Z,102571.05
2019-03-27T12:34:30.324Z,102572.73
2019-03-27T12:37:01.026Z,102590.39
2019-03-27T12:39:31.662Z,102572.95
2019-03-27T12:42:02.247Z,102578.86
2019-03-27T12:44:32.953Z,102578.98
2019-03-27T12:47:03.564Z,102580.55
2019-03-27T12:49:34.268Z,102575.73
2019-03-27T12:52:05.563Z,102576.73
2019-03-27T12:54:36.352Z,102568.38
2019-03-27T12:57:06.918Z,102585.69
2019-03-27T12:59:37.561Z,102594.55
2019-03-27T13:02:08.278Z,102588.44
2019-03-27T13:04:38.902Z,102580.92
2019-03-27T13:07:09.468Z,102579.47
2019-03-27T13:09:40.171Z,102583.84
2019-03-27T13:12:14.819Z,102589.28
2019-03-27T13:14:45.460Z,102585.41
2019-03-27T13:17:16.169Z,102583.78
2019-03-27T13:19:46.689Z,102590.13
2019-03-27T13:22:17.326Z,102594.44
2019-03-27T13:24:47.949Z,102605.94
2019-03-27T13:27:18.564Z,102605.94
2019-03-27T13:29:49.169Z,102603.59
2019-03-27T13:32:19.821Z,102603.59
2019-03-27T13:34:50.545Z,102599.94
2019-03-27T13:37:21.212Z,102607.73
2019-03-27T13:39:51.822Z,102608.36
2019-03-27T13:42:22.640Z,102608.36
2019-03-27T13:44:53.303Z,102605.55
2019-03-27T13:47:25.597Z,102618.80
2019-03-27T13:49:56.208Z,102615.80
2019-03-27T13:52:26.817Z,102615.45
2019-03-27T13:54:57.490Z,102622.98
2019-03-27T13:57:28.188Z,102618.99
2019-03-27T13:59:58.790Z,102618.99
2019-03-27T14:02:29.559Z,102612.47
2019-03-27T14:05:00.391Z,102612.31
2019-03-27T14:07:31.259Z,102609.20
2019-03-27T14:10:02.699Z,102615.45
2019-03-27T14:12:33.377Z,102608.01
2019-03-27T14:15:04.060Z,102601.77
2019-03-27T14:17:34.718Z,102604.55
2019-03-27T14:20:06.737Z,102599.02
2019-03-27T14:22:37.312Z,102596.44
2019-03-27T14:25:08.872Z,102595.43
2019-03-27T14:27:39.627Z,102592.70
2019-03-27T14:30:11.357Z,102595.58
2019-03-27T14:32:41.943Z,102594.39
2019-03-27T14:35:12.874Z,102596.51
2019-03-27T14:37:43.438Z,102591.55
2019-03-27T14:40:14.282Z,102589.28
2019-03-27T14:42:44.867Z,102590.62
2019-03-27T14:45:15.824Z,102590.62
2019-03-27T14:47:46.439Z,102593.91
2019-03-27T14:50:17.079Z,102593.91
2019-03-27T14:52:47.738Z,102596.77
2019-03-27T14:55:18.363Z,102598.86
2019-03-27T14:57:48.995Z,102595.84
2019-03-27T15:00:19.803Z,102595.86
2019-03-27T15:02:50.424Z,102598.63
2019-03-27T15:05:21.206Z,102590.03
2019-03-27T15:07:51.905Z,102608.38
2019-03-27T15:10:22.581Z,102602.09
2019-03-27T15:12:53.197Z,102601.90
2019-03-27T15:15:23.859Z,102604.33
2019-03-27T15:17:54.461Z,102599.57
2019-03-27T15:20:25.195Z,102600.25
2019-03-27T15:22:55.860Z,102604.28
2019-03-27T15:25:26.472Z,102604.28
2019-03-27T15:27:57.111Z,102604.92
2019-03-27T15:30:27.733Z,102602.44
2019-03-27T15:32:58.369Z,102602.44
2019-03-27T15:35:29.050Z,102611.23
2019-03-27T15:37:59.748Z,102611.23
2019-03-27T15:40:44.237Z,102613.44
2019-03-27T15:43:14.858Z,102605.91
2019-03-27T15:45:45.538Z,102612.89
2019-03-27T15:48:16.145Z,102609.66
2019-03-27T15:50:56.873Z,102610.64
2019-03-27T15:53:19.130Z,102614.64
2019-03-27T15:55:49.772Z,102610.64
2019-03-27T15:58:20.395Z,102609.59
2019-03-27T16:00:51.113Z,102614.11
2019-03-27T16:03:21.703Z,102620.69
2019-03-27T16:05:52.380Z,102615.81
2019-03-27T16:08:22.969Z,102620.09
2019-03-27T16:10:53.612Z,102620.63
2019-03-27T16:13:24.256Z,102619.67
2019-03-27T16:15:54.902Z,102617.08
2019-03-27T16:18:25.535Z,102621.14
2019-03-27T16:20:56.183Z,102622.36
2019-03-27T16:23:26.901Z,102618.95
2019-03-27T16:25:57.532Z,102620.92
2019-03-27T16:28:28.177Z,102620.14
2019-03-27T16:30:58.778Z,102618.92
2019-03-27T16:33:29.397Z,102616.55
2019-03-27T16:36:00.142Z,102613.55
2019-03-27T16:38:30.846Z,102618.98
2019-03-27T16:41:01.454Z,102613.98
2019-03-27T16:43:32.112Z,102609.48
2019-03-27T16:46:02.747Z,102620.02
2019-03-27T16:48:33.541Z,102616.20
2019-03-27T16:51:04.923Z,102615.67
2019-03-27T16:53:35.596Z,102611.11
2019-03-27T16:56:06.186Z,102615.92
2019-03-27T16:58:36.852Z,102618.30
2019-03-27T17:01:07.534Z,102613.42
2019-03-27T17:03:38.176Z,102613.23
2019-03-27T17:06:08.775Z,102610.61
2019-03-27T17:08:39.416Z,102616.36
2019-03-27T17:11:10.013Z,102620.39
2019-03-27T17:13:40.661Z,102622.89
2019-03-27T17:16:11.263Z,102622.39
2019-03-27T17:18:41.940Z,102618.80
2019-03-27T17:21:12.532Z,102619.20
2019-03-27T17:23:43.186Z,102626.23
2019-03-27T17:26:13.814Z,102631.36
2019-03-27T17:28:44.536Z,102632.36
2019-03-27T17:31:15.167Z,102631.77
2019-03-27T17:33:45.853Z,102628.05
2019-03-27T17:36:16.507Z,102635.49
2019-03-27T17:38:47.109Z,102642.16
2019-03-27T17:41:17.745Z,102647.16
2019-03-27T17:43:48.398Z,102642.42
2019-03-27T17:46:19.248Z,102642.37
2019-03-27T17:48:49.885Z,102655.34
2019-03-27T17:51:20.483Z,102649.51
2019-03-27T17:53:51.116Z,102651.31
2019-03-27T17:56:21.700Z,102668.19
2019-03-27T17:58:52.331Z,102657.38
2019-03-27T18:01:23.098Z,102659.12
2019-03-27T18:03:53.659Z,102659.63
2019-03-27T18:06:24.301Z,102663.29
2019-03-27T18:08:54.932Z,102661.17
2019-03-27T18:11:25.515Z,102669.80
2019-03-27T18:13:56.230Z,102667.06
2019-03-27T18:16:26.868Z,102668.57
2019-03-27T18:18:57.510Z,102671.17
2019-03-27T18:21:28.151Z,102671.78
2019-03-27T18:23:58.795Z,102667.28
2019-03-27T18:26:29.476Z,102676.87
2019-03-27T18:29:00.165Z,102676.50
2019-03-27T18:31:30.774Z,102680.53
2019-03-27T18:34:01.469Z,102679.86
2019-03-27T18:36:32.047Z,102676.02
2019-03-27T18:39:02.751Z,102686.39
2019-03-27T18:41:33.373Z,102686.61
2019-03-27T18:44:03.993Z,102684.32
2019-03-27T18:46:34.600Z,102688.80
2019-03-27T18:49:05.288Z,102691.53
2019-03-27T18:51:35.854Z,102689.25
2019-03-27T18:54:06.597Z,102691.45
2019-03-27T18:56:37.195Z,102692.88
2019-03-27T18:59:07.852Z,102687.77
2019-03-27T19:01:38.454Z,102695.35
2019-03-27T19:04:09.126Z,102696.52
2019-03-27T19:06:39.730Z,102694.42
2019-03-27T19:09:10.468Z,102688.23
2019-03-27T19:11:41.059Z,102695.06
2019-03-27T19:14:11.725Z,102694.80
2019-03-27T19:16:42.375Z,102689.29
2019-03-27T19:19:12.996Z,102694.41
2019-03-27T19:21:43.601Z,102698.17
2019-03-27T19:24:16.698Z,102707.71
2019-03-27T19:26:46.859Z,102709.45
2019-03-27T19:29:17.493Z,102702.47
2019-03-27T19:31:48.122Z,102707.75
2019-03-27T19:34:18.752Z,102703.19
2019-03-27T19:36:49.314Z,102707.22
2019-03-27T19:39:19.917Z,102701.53
2019-03-27T19:41:50.556Z,102706.72
2019-03-27T19:44:21.173Z,102701.53
2019-03-27T19:46:51.908Z,102708.02
2019-03-27T19:49:22.512Z,102699.11
2019-03-27T19:51:53.154Z,102707.30
2019-03-27T19:54:27.423Z,102703.50
2019-03-27T19:56:56.214Z,102702.70
2019-03-27T19:59:26.891Z,102699.02
2019-03-27T20:01:57.538Z,102704.84
2019-03-27T20:04:28.131Z,102695.17
2019-03-27T20:06:58.781Z,102697.72
2019-03-27T20:09:29.461Z,102695.53
2019-03-27T20:12:00.104Z,102693.88
2019-03-27T20:14:30.796Z,102694.95
2019-03-27T20:17:01.851Z,102698.40
2019-03-27T20:19:32.455Z,102697.02
2019-03-27T20:22:03.119Z,102697.23
2019-03-27T20:24:41.024Z,102697.10
2019-03-27T20:27:06.082Z,102694.95
2019-03-27T20:29:36.727Z,102696.61
2019-03-27T20:32:07.357Z,102693.52
2019-03-27T20:34:37.923Z,102696.11
2019-03-27T20:37:08.566Z,102694.68
2019-03-27T20:39:42.418Z,102693.61
2019-03-27T20:42:11.521Z,102695.62
2019-03-27T20:44:42.105Z,102696.11
2019-03-27T20:47:12.876Z,102696.34
2019-03-27T20:49:43.473Z,102700.23
2019-03-27T20:52:14.103Z,102697.55
2019-03-27T20:54:55.019Z,102699.68
2019-03-27T20:57:17.171Z,102699.11
2019-03-27T20:59:47.777Z,102706.62
2019-03-27T21:02:20.354Z,102704.83
2019-03-27T21:04:50.844Z,102706.08
2019-03-27T21:07:24.490Z,102714.81
2019-03-27T21:09:53.863Z,102700.64
2019-03-27T21:12:24.516Z,102707.02
2019-03-27T21:14:55.159Z,102700.45
2019-03-27T21:17:25.909Z,102701.53
2019-03-27T21:19:56.502Z,102702.33
2019-03-27T21:22:27.139Z,102693.59
2019-03-27T21:25:07.978Z,102695.07
2019-03-27T21:27:30.155Z,102695.52
2019-03-27T21:30:00.789Z,102690.44
2019-03-27T21:32:31.420Z,102692.31
2019-03-27T21:35:02.065Z,102688.27
2019-03-27T21:37:32.721Z,102694.56
2019-03-27T21:40:03.339Z,102700.43
2019-03-27T21:42:36.079Z,102706.12
2019-03-27T21:45:07.888Z,102710.91
2019-03-27T21:47:38.652Z,102720.64
2019-03-27T21:50:09.374Z,102714.27
2019-03-27T21:52:40.039Z,102719.95
2019-03-27T21:55:21.949Z,102723.26
2019-03-27T21:57:43.074Z,102719.00
2019-03-27T22:00:17.049Z,102727.28
2019-03-27T22:02:47.744Z,102727.21
2019-03-27T22:05:18.420Z,102735.14
2019-03-27T22:07:49.068Z,102734.03
2019-03-27T22:10:19.769Z,102733.42
2019-03-27T22:12:50.443Z,102743.86
2019-03-27T22:15:21.074Z,102738.87
2019-03-27T22:17:51.740Z,102737.09
2019-03-27T22:20:22.386Z,102741.81
2019-03-27T22:22:53.052Z,102739.09
2019-03-27T22:25:35.452Z,102743.80
2019-03-27T22:27:56.179Z,102741.20
2019-03-27T22:30:26.902Z,102743.70
2019-03-27T22:32:57.638Z,102740.43
2019-03-27T22:35:28.386Z,102752.91
2019-03-27T22:37:59.058Z,102748.52
2019-03-27T22:40:29.804Z,102751.50
2019-03-27T22:43:00.608Z,102749.94
2019-03-27T22:45:31.395Z,102751.34
2019-03-27T22:48:02.120Z,102756.47
2019-03-27T22:50:32.796Z,102747.26
2019-03-27T22:53:03.471Z,102756.19
2019-03-27T22:55:34.226Z,102753.75
2019-03-27T22:58:04.956Z,102756.97
2019-03-27T23:00:45.820Z,102753.54
2019-03-27T23:03:18.578Z,102760.42
2019-03-27T23:05:49.242Z,102768.69
2019-03-27T23:08:19.914Z,102760.53
2019-03-27T23:10:50.619Z,102762.75
2019-03-27T23:13:21.343Z,102762.83
2019-03-27T23:15:52.018Z,102759.83
2019-03-27T23:18:24.333Z,102762.36
2019-03-27T23:20:55.144Z,102767.24
2019-03-27T23:23:25.736Z,102764.59
2019-03-27T23:26:02.841Z,102763.57
2019-03-27T23:28:28.808Z,102770.23
2019-03-27T23:30:59.508Z,102766.42
2019-03-27T23:33:30.166Z,102766.05
2019-03-27T23:36:01.782Z,102773.38
2019-03-27T23:38:32.431Z,102767.31
2019-03-27T23:41:03.157Z,102773.84
2019-03-27T23:43:33.846Z,102769.22
2019-03-27T23:46:04.505Z,102763.03
2019-03-27T23:48:35.200Z,102766.39
2019-03-27T23:51:05.879Z,102757.78
2019-03-27T23:53:36.656Z,102752.30
2019-03-27T23:56:16.517Z,102755.59
2019-03-27T23:58:39.647Z,102748.73
